Terminal Aerodrome Forecast
Issued by NWS

Home | Current Version | Previous Version | Text Only | Print | Product List | Glossary On
Versions: 1 2 3 4 5 6 7 8 9 10 11 12
000
FTUS41 KCLE 281728
TAFFDY
TAF
KFDY 281728Z 2818/2918 10005KT P6SM SCT070 BKN200
     FM290400 VRB03KT P6SM SCT060 BKN150
     FM290900 00000KT 2SM BR BKN150
     FM291300 04003KT P6SM BKN150=

USA.gov is the U.S. government's official web portal to all federal, state and local government web resources and services.